Terminal Aerodrome Forecast
Issued by NWS

Home | Current Version | Previous Version | Text Only | Print | Product List | Glossary On
Versions: 1 2 3 4 5 6 7 8 9 10 11 12 13 14 15 16 17 18 19 20
511
FTUS43 KICT 180622 AAA
TAFCNU
TAF AMD
KCNU 180622Z 1806/1906 11007KT P6SM SCT015
     FM180900 13007KT 6SM BR VCTS BKN015 OVC035CB
     FM181400 13007KT P6SM SCT050=

USA.gov is the U.S. government's official web portal to all federal, state and local government web resources and services.